sensor_id;sensor_type;location;lat;lon;timestamp;temperature;humidity
22147;DHT22;13074;48.298;14.424;2023-01-30T00:00:52;1.30;99.90
22147;DHT22;13074;48.298;14.424;2023-01-30T00:03:20;1.30;99.90
22147;DHT22;13074;48.298;14.424;2023-01-30T00:05:48;1.30;99.90
22147;DHT22;13074;48.298;14.424;2023-01-30T00:08:15;1.40;99.90
22147;DHT22;13074;48.298;14.424;2023-01-30T00:10:44;1.40;99.90
22147;DHT22;13074;48.298;14.424;2023-01-30T00:13:12;1.40;99.90
22147;DHT22;13074;48.298;14.424;2023-01-30T00:15:40;1.40;99.90
22147;DHT22;13074;48.298;14.424;2023-01-30T00:18:08;1.50;99.90
22147;DHT22;13074;48.298;14.424;2023-01-30T00:20:36;1.40;99.90
22147;DHT22;13074;48.298;14.424;2023-01-30T00:23:03;1.40;99.90
22147;DHT22;13074;48.298;14.424;2023-01-30T00:25:30;1.30;99.90
22147;DHT22;13074;48.298;14.424;2023-01-30T00:28:00;1.20;99.90
22147;DHT22;13074;48.298;14.424;2023-01-30T00:30:27;1.30;99.90
22147;DHT22;13074;48.298;14.424;2023-01-30T00:32:55;1.40;99.90
22147;DHT22;13074;48.298;14.424;2023-01-30T00:35:22;1.50;99.90
22147;DHT22;13074;48.298;14.424;2023-01-30T00:37:54;1.50;99.90
22147;DHT22;13074;48.298;14.424;2023-01-30T00:40:22;1.40;99.90
22147;DHT22;13074;48.298;14.424;2023-01-30T00:42:49;1.40;99.90
22147;DHT22;13074;48.298;14.424;2023-01-30T00:45:37;1.50;99.90
22147;DHT22;13074;48.298;14.424;2023-01-30T00:48:23;1.50;99.90
22147;DHT22;13074;48.298;14.424;2023-01-30T00:50:50;1.60;99.90
22147;DHT22;13074;48.298;14.424;2023-01-30T00:53:18;1.60;99.90
22147;DHT22;13074;48.298;14.424;2023-01-30T00:55:45;1.40;99.90
22147;DHT22;13074;48.298;14.424;2023-01-30T00:58:12;1.30;99.90
22147;DHT22;13074;48.298;14.424;2023-01-30T01:00:41;1.40;99.90
22147;DHT22;13074;48.298;14.424;2023-01-30T01:03:08;1.30;99.90
22147;DHT22;13074;48.298;14.424;2023-01-30T01:05:35;1.30;99.90
22147;DHT22;13074;48.298;14.424;2023-01-30T01:08:02;1.40;99.90
22147;DHT22;13074;48.298;14.424;2023-01-30T01:10:30;1.50;99.90
22147;DHT22;13074;48.298;14.424;2023-01-30T01:12:58;1.50;99.90
22147;DHT22;13074;48.298;14.424;2023-01-30T01:15:25;1.50;99.90
22147;DHT22;13074;48.298;14.424;2023-01-30T01:17:54;1.40;99.90
22147;DHT22;13074;48.298;14.424;2023-01-30T01:20:22;1.50;99.90
22147;DHT22;13074;48.298;14.424;2023-01-30T01:22:52;1.40;99.90
22147;DHT22;13074;48.298;14.424;2023-01-30T01:25:19;1.50;99.90
22147;DHT22;13074;48.298;14.424;2023-01-30T01:27:47;1.50;99.90
22147;DHT22;13074;48.298;14.424;2023-01-30T01:30:15;1.20;99.90
22147;DHT22;13074;48.298;14.424;2023-01-30T01:32:42;1.30;99.90
22147;DHT22;13074;48.298;14.424;2023-01-30T01:35:11;1.40;99.90
22147;DHT22;13074;48.298;14.424;2023-01-30T01:37:38;1.40;99.90
22147;DHT22;13074;48.298;14.424;2023-01-30T01:40:06;1.50;99.90
22147;DHT22;13074;48.298;14.424;2023-01-30T01:42:51;1.50;99.90
22147;DHT22;13074;48.298;14.424;2023-01-30T01:45:20;1.30;99.90
22147;DHT22;13074;48.298;14.424;2023-01-30T01:47:59;1.40;99.90
22147;DHT22;13074;48.298;14.424;2023-01-30T01:50:37;1.30;99.90
22147;DHT22;13074;48.298;14.424;2023-01-30T01:53:07;1.20;99.90
22147;DHT22;13074;48.298;14.424;2023-01-30T01:55:36;1.10;99.90
22147;DHT22;13074;48.298;14.424;2023-01-30T01:58:06;1.10;99.90
22147;DHT22;13074;48.298;14.424;2023-01-30T02:00:35;1.10;99.90
22147;DHT22;13074;48.298;14.424;2023-01-30T02:03:05;1.00;99.90
22147;DHT22;13074;48.298;14.424;2023-01-30T02:05:40;1.10;99.90
22147;DHT22;13074;48.298;14.424;2023-01-30T02:08:10;1.20;99.90
22147;DHT22;13074;48.298;14.424;2023-01-30T02:10:45;1.20;99.90
22147;DHT22;13074;48.298;14.424;2023-01-30T02:13:14;1.30;99.90
22147;DHT22;13074;48.298;14.424;2023-01-30T02:15:42;1.40;99.90
22147;DHT22;13074;48.298;14.424;2023-01-30T02:18:09;1.50;99.90
22147;DHT22;13074;48.298;14.424;2023-01-30T02:20:55;1.50;99.90
22147;DHT22;13074;48.298;14.424;2023-01-30T02:23:53;1.40;99.90
22147;DHT22;13074;48.298;14.424;2023-01-30T02:32:41;1.40;99.90
22147;DHT22;13074;48.298;14.424;2023-01-30T02:35:19;1.50;99.90
22147;DHT22;13074;48.298;14.424;2023-01-30T02:37:57;1.30;99.90
22147;DHT22;13074;48.298;14.424;2023-01-30T02:40:38;1.30;99.90
22147;DHT22;13074;48.298;14.424;2023-01-30T02:43:14;1.30;99.90
22147;DHT22;13074;48.298;14.424;2023-01-30T02:45:46;1.20;99.90
22147;DHT22;13074;48.298;14.424;2023-01-30T02:48:22;1.30;99.90
22147;DHT22;13074;48.298;14.424;2023-01-30T02:50:54;1.30;99.90
22147;DHT22;13074;48.298;14.424;2023-01-30T02:53:23;1.20;99.90
22147;DHT22;13074;48.298;14.424;2023-01-30T02:55:50;1.10;99.90
22147;DHT22;13074;48.298;14.424;2023-01-30T02:58:19;1.10;99.90
22147;DHT22;13074;48.298;14.424;2023-01-30T03:00:58;1.10;99.90
22147;DHT22;13074;48.298;14.424;2023-01-30T03:03:54;1.00;99.90
22147;DHT22;13074;48.298;14.424;2023-01-30T03:09:20;1.10;99.90
22147;DHT22;13074;48.298;14.424;2023-01-30T03:11:52;1.20;99.90
22147;DHT22;13074;48.298;14.424;2023-01-30T03:14:27;1.20;99.90
22147;DHT22;13074;48.298;14.424;2023-01-30T03:16:59;1.30;99.90
22147;DHT22;13074;48.298;14.424;2023-01-30T03:19:31;1.40;99.90
22147;DHT22;13074;48.298;14.424;2023-01-30T03:21:59;1.40;99.90
22147;DHT22;13074;48.298;14.424;2023-01-30T03:24:26;1.50;99.90
22147;DHT22;13074;48.298;14.424;2023-01-30T03:26:57;1.40;99.90
22147;DHT22;13074;48.298;14.424;2023-01-30T03:29:26;1.40;99.90
22147;DHT22;13074;48.298;14.424;2023-01-30T03:31:53;1.30;99.90
22147;DHT22;13074;48.298;14.424;2023-01-30T03:34:20;1.30;99.90
22147;DHT22;13074;48.298;14.424;2023-01-30T03:36:49;1.30;99.90
22147;DHT22;13074;48.298;14.424;2023-01-30T03:39:16;1.20;99.90
22147;DHT22;13074;48.298;14.424;2023-01-30T03:41:43;1.10;99.90
22147;DHT22;13074;48.298;14.424;2023-01-30T03:44:11;1.10;99.90
22147;DHT22;13074;48.298;14.424;2023-01-30T03:46:38;1.20;99.90
22147;DHT22;13074;48.298;14.424;2023-01-30T03:49:05;1.30;99.90
22147;DHT22;13074;48.298;14.424;2023-01-30T03:51:32;1.30;99.90
22147;DHT22;13074;48.298;14.424;2023-01-30T03:54:01;1.10;99.90
22147;DHT22;13074;48.298;14.424;2023-01-30T03:56:29;1.00;99.90
22147;DHT22;13074;48.298;14.424;2023-01-30T03:58:56;1.00;99.90
22147;DHT22;13074;48.298;14.424;2023-01-30T04:01:24;1.10;99.90
22147;DHT22;13074;48.298;14.424;2023-01-30T04:03:51;1.10;99.90
22147;DHT22;13074;48.298;14.424;2023-01-30T04:06:18;1.10;99.90
22147;DHT22;13074;48.298;14.424;2023-01-30T04:08:45;1.20;99.90
22147;DHT22;13074;48.298;14.424;2023-01-30T04:11:14;1.20;99.90
22147;DHT22;13074;48.298;14.424;2023-01-30T04:13:41;1.00;99.90
22147;DHT22;13074;48.298;14.424;2023-01-30T04:16:17;1.00;99.90
22147;DHT22;13074;48.298;14.424;2023-01-30T04:18:44;1.10;99.90
22147;DHT22;13074;48.298;14.424;2023-01-30T04:21:12;1.20;99.90
22147;DHT22;13074;48.298;14.424;2023-01-30T04:23:39;1.20;99.90
22147;DHT22;13074;48.298;14.424;2023-01-30T04:26:07;1.30;99.90
22147;DHT22;13074;48.298;14.424;2023-01-30T04:28:36;1.00;99.90
22147;DHT22;13074;48.298;14.424;2023-01-30T04:31:04;1.10;99.90
22147;DHT22;13074;48.298;14.424;2023-01-30T04:33:31;1.20;99.90
22147;DHT22;13074;48.298;14.424;2023-01-30T04:36:01;1.20;99.90
22147;DHT22;13074;48.298;14.424;2023-01-30T04:38:30;1.30;99.90
22147;DHT22;13074;48.298;14.424;2023-01-30T04:40:57;1.30;99.90
22147;DHT22;13074;48.298;14.424;2023-01-30T04:43:26;1.20;99.90
22147;DHT22;13074;48.298;14.424;2023-01-30T04:45:55;1.30;99.90
22147;DHT22;13074;48.298;14.424;2023-01-30T04:48:23;1.30;99.90
22147;DHT22;13074;48.298;14.424;2023-01-30T04:50:52;1.30;99.90
22147;DHT22;13074;48.298;14.424;2023-01-30T04:53:21;1.30;99.90
22147;DHT22;13074;48.298;14.424;2023-01-30T04:55:48;1.30;99.90
22147;DHT22;13074;48.298;14.424;2023-01-30T04:58:15;1.20;99.90
22147;DHT22;13074;48.298;14.424;2023-01-30T05:00:43;1.20;99.90
22147;DHT22;13074;48.298;14.424;2023-01-30T05:03:12;1.10;99.90
22147;DHT22;13074;48.298;14.424;2023-01-30T05:05:40;1.30;99.90
22147;DHT22;13074;48.298;14.424;2023-01-30T05:08:07;1.30;99.90
22147;DHT22;13074;48.298;14.424;2023-01-30T05:10:34;1.40;99.90
22147;DHT22;13074;48.298;14.424;2023-01-30T05:13:02;1.30;99.90
22147;DHT22;13074;48.298;14.424;2023-01-30T05:15:30;1.40;99.90
22147;DHT22;13074;48.298;14.424;2023-01-30T05:17:57;1.40;99.90
22147;DHT22;13074;48.298;14.424;2023-01-30T05:20:25;1.40;99.90
22147;DHT22;13074;48.298;14.424;2023-01-30T05:22:53;1.40;99.90
22147;DHT22;13074;48.298;14.424;2023-01-30T05:25:20;1.50;99.90
22147;DHT22;13074;48.298;14.424;2023-01-30T05:27:47;1.50;99.90
22147;DHT22;13074;48.298;14.424;2023-01-30T05:30:14;1.30;99.90
22147;DHT22;13074;48.298;14.424;2023-01-30T05:32:42;1.00;99.90
22147;DHT22;13074;48.298;14.424;2023-01-30T05:35:09;1.00;99.90
22147;DHT22;13074;48.298;14.424;2023-01-30T05:37:37;1.00;99.90
22147;DHT22;13074;48.298;14.424;2023-01-30T05:40:05;1.00;99.90
22147;DHT22;13074;48.298;14.424;2023-01-30T05:42:33;1.00;99.90
22147;DHT22;13074;48.298;14.424;2023-01-30T05:45:00;0.70;99.90
22147;DHT22;13074;48.298;14.424;2023-01-30T05:47:27;0.70;99.90
22147;DHT22;13074;48.298;14.424;2023-01-30T05:49:55;0.80;99.90
22147;DHT22;13074;48.298;14.424;2023-01-30T05:52:22;0.50;99.90
22147;DHT22;13074;48.298;14.424;2023-01-30T05:54:50;0.70;99.90
22147;DHT22;13074;48.298;14.424;2023-01-30T05:57:18;0.70;99.90
22147;DHT22;13074;48.298;14.424;2023-01-30T05:59:45;0.70;99.90
22147;DHT22;13074;48.298;14.424;2023-01-30T06:02:12;0.70;99.90
22147;DHT22;13074;48.298;14.424;2023-01-30T06:04:39;0.70;99.90
22147;DHT22;13074;48.298;14.424;2023-01-30T06:07:06;0.60;99.90
22147;DHT22;13074;48.298;14.424;2023-01-30T06:09:35;0.60;99.90
22147;DHT22;13074;48.298;14.424;2023-01-30T06:12:04;0.60;99.90
22147;DHT22;13074;48.298;14.424;2023-01-30T06:14:32;0.60;99.90
22147;DHT22;13074;48.298;14.424;2023-01-30T06:16:59;0.70;99.90
22147;DHT22;13074;48.298;14.424;2023-01-30T06:19:26;0.70;99.90
22147;DHT22;13074;48.298;14.424;2023-01-30T06:21:53;0.50;99.90
22147;DHT22;13074;48.298;14.424;2023-01-30T06:24:21;0.40;99.90
22147;DHT22;13074;48.298;14.424;2023-01-30T06:26:48;0.50;99.90
22147;DHT22;13074;48.298;14.424;2023-01-30T06:29:16;0.60;99.90
22147;DHT22;13074;48.298;14.424;2023-01-30T06:31:43;0.50;99.90
22147;DHT22;13074;48.298;14.424;2023-01-30T06:34:11;0.50;99.90
22147;DHT22;13074;48.298;14.424;2023-01-30T06:36:38;0.60;99.90
22147;DHT22;13074;48.298;14.424;2023-01-30T06:39:05;0.60;99.90
22147;DHT22;13074;48.298;14.424;2023-01-30T06:41:32;0.40;99.90
22147;DHT22;13074;48.298;14.424;2023-01-30T06:43:59;0.30;99.90
22147;DHT22;13074;48.298;14.424;2023-01-30T06:46:28;0.40;99.90
22147;DHT22;13074;48.298;14.424;2023-01-30T06:48:55;0.40;99.90
22147;DHT22;13074;48.298;14.424;2023-01-30T06:51:22;0.50;99.90
22147;DHT22;13074;48.298;14.424;2023-01-30T06:53:53;0.40;99.90
22147;DHT22;13074;48.298;14.424;2023-01-30T06:56:20;0.50;99.90
22147;DHT22;13074;48.298;14.424;2023-01-30T06:58:48;0.40;99.90
22147;DHT22;13074;48.298;14.424;2023-01-30T07:01:15;0.50;99.90
22147;DHT22;13074;48.298;14.424;2023-01-30T07:03:45;0.50;99.90
22147;DHT22;13074;48.298;14.424;2023-01-30T07:06:12;0.50;99.90
22147;DHT22;13074;48.298;14.424;2023-01-30T07:08:39;0.60;99.90
22147;DHT22;13074;48.298;14.424;2023-01-30T07:11:06;0.70;99.90
22147;DHT22;13074;48.298;14.424;2023-01-30T07:13:33;0.60;99.90
22147;DHT22;13074;48.298;14.424;2023-01-30T07:16:01;0.70;99.90
22147;DHT22;13074;48.298;14.424;2023-01-30T07:18:28;0.80;99.90
22147;DHT22;13074;48.298;14.424;2023-01-30T07:20:56;0.70;99.90
22147;DHT22;13074;48.298;14.424;2023-01-30T07:23:24;0.80;99.90
22147;DHT22;13074;48.298;14.424;2023-01-30T07:25:51;0.90;99.90
22147;DHT22;13074;48.298;14.424;2023-01-30T07:28:18;1.00;99.90
22147;DHT22;13074;48.298;14.424;2023-01-30T07:30:45;1.00;99.90
22147;DHT22;13074;48.298;14.424;2023-01-30T07:33:12;1.20;99.90
22147;DHT22;13074;48.298;14.424;2023-01-30T07:35:39;1.20;99.90
22147;DHT22;13074;48.298;14.424;2023-01-30T07:38:08;1.20;99.90
22147;DHT22;13074;48.298;14.424;2023-01-30T07:40:35;1.30;99.90
22147;DHT22;13074;48.298;14.424;2023-01-30T07:43:04;1.20;99.90
22147;DHT22;13074;48.298;14.424;2023-01-30T07:45:34;1.10;99.90
22147;DHT22;13074;48.298;14.424;2023-01-30T07:48:03;1.00;99.90
22147;DHT22;13074;48.298;14.424;2023-01-30T07:50:30;0.70;99.90
22147;DHT22;13074;48.298;14.424;2023-01-30T07:52:57;0.90;99.90
22147;DHT22;13074;48.298;14.424;2023-01-30T07:55:26;1.20;99.90
22147;DHT22;13074;48.298;14.424;2023-01-30T07:57:56;1.30;99.90
22147;DHT22;13074;48.298;14.424;2023-01-30T08:00:24;1.50;99.90
22147;DHT22;13074;48.298;14.424;2023-01-30T08:02:51;1.60;99.90
22147;DHT22;13074;48.298;14.424;2023-01-30T08:05:18;1.60;99.90
22147;DHT22;13074;48.298;14.424;2023-01-30T08:07:45;1.50;99.90
22147;DHT22;13074;48.298;14.424;2023-01-30T08:10:13;1.30;99.90
22147;DHT22;13074;48.298;14.424;2023-01-30T08:12:42;1.30;99.90
22147;DHT22;13074;48.298;14.424;2023-01-30T08:15:09;1.40;99.90
22147;DHT22;13074;48.298;14.424;2023-01-30T08:17:37;1.40;99.90
22147;DHT22;13074;48.298;14.424;2023-01-30T08:20:05;1.30;99.90
22147;DHT22;13074;48.298;14.424;2023-01-30T08:22:32;1.30;99.90
22147;DHT22;13074;48.298;14.424;2023-01-30T08:24:59;1.40;99.90
22147;DHT22;13074;48.298;14.424;2023-01-30T08:27:26;1.60;99.90
22147;DHT22;13074;48.298;14.424;2023-01-30T08:29:55;1.50;99.90
22147;DHT22;13074;48.298;14.424;2023-01-30T08:32:22;1.70;99.90
22147;DHT22;13074;48.298;14.424;2023-01-30T08:34:49;1.70;99.90
22147;DHT22;13074;48.298;14.424;2023-01-30T08:37:16;1.70;99.90
22147;DHT22;13074;48.298;14.424;2023-01-30T08:39:43;1.60;99.90
22147;DHT22;13074;48.298;14.424;2023-01-30T08:42:29;1.70;99.90
22147;DHT22;13074;48.298;14.424;2023-01-30T08:44:57;1.90;99.90
22147;DHT22;13074;48.298;14.424;2023-01-30T08:47:25;1.90;99.90
22147;DHT22;13074;48.298;14.424;2023-01-30T08:49:52;2.00;99.90
22147;DHT22;13074;48.298;14.424;2023-01-30T08:52:19;2.10;99.90
22147;DHT22;13074;48.298;14.424;2023-01-30T08:54:46;2.20;99.90
22147;DHT22;13074;48.298;14.424;2023-01-30T08:57:14;2.30;99.90
22147;DHT22;13074;48.298;14.424;2023-01-30T08:59:41;2.40;99.90
22147;DHT22;13074;48.298;14.424;2023-01-30T09:02:10;2.40;99.90
22147;DHT22;13074;48.298;14.424;2023-01-30T09:04:38;2.40;99.90
22147;DHT22;13074;48.298;14.424;2023-01-30T09:07:05;2.50;99.90
22147;DHT22;13074;48.298;14.424;2023-01-30T09:09:32;2.60;99.90
22147;DHT22;13074;48.298;14.424;2023-01-30T09:11:59;2.60;99.90
22147;DHT22;13074;48.298;14.424;2023-01-30T09:14:26;2.80;99.90
22147;DHT22;13074;48.298;14.424;2023-01-30T09:16:53;2.80;99.90
22147;DHT22;13074;48.298;14.424;2023-01-30T09:19:23;2.90;99.90
22147;DHT22;13074;48.298;14.424;2023-01-30T09:21:51;3.00;99.90
22147;DHT22;13074;48.298;14.424;2023-01-30T09:24:18;3.10;99.90
22147;DHT22;13074;48.298;14.424;2023-01-30T09:26:45;3.10;99.90
22147;DHT22;13074;48.298;14.424;2023-01-30T09:29:13;3.10;99.90
22147;DHT22;13074;48.298;14.424;2023-01-30T09:31:40;3.00;99.90
22147;DHT22;13074;48.298;14.424;2023-01-30T09:34:07;3.10;99.90
22147;DHT22;13074;48.298;14.424;2023-01-30T09:36:36;3.00;99.90
22147;DHT22;13074;48.298;14.424;2023-01-30T09:39:04;2.80;99.90
22147;DHT22;13074;48.298;14.424;2023-01-30T09:41:50;3.00;99.90
22147;DHT22;13074;48.298;14.424;2023-01-30T09:44:40;3.20;99.90
22147;DHT22;13074;48.298;14.424;2023-01-30T09:47:22;3.40;99.90
22147;DHT22;13074;48.298;14.424;2023-01-30T09:49:59;3.50;99.90
22147;DHT22;13074;48.298;14.424;2023-01-30T09:52:39;3.40;99.90
22147;DHT22;13074;48.298;14.424;2023-01-30T09:55:17;3.40;99.90
22147;DHT22;13074;48.298;14.424;2023-01-30T09:57:46;3.40;99.90
22147;DHT22;13074;48.298;14.424;2023-01-30T10:00:18;3.40;99.90
22147;DHT22;13074;48.298;14.424;2023-01-30T10:02:52;3.30;99.90
22147;DHT22;13074;48.298;14.424;2023-01-30T10:05:30;3.10;99.90
22147;DHT22;13074;48.298;14.424;2023-01-30T10:08:20;3.40;99.90
22147;DHT22;13074;48.298;14.424;2023-01-30T10:10:56;3.60;99.90
22147;DHT22;13074;48.298;14.424;2023-01-30T10:13:46;3.70;99.90
22147;DHT22;13074;48.298;14.424;2023-01-30T10:16:18;3.70;99.90
22147;DHT22;13074;48.298;14.424;2023-01-30T10:18:59;4.00;99.90
22147;DHT22;13074;48.298;14.424;2023-01-30T10:21:41;4.00;99.90
22147;DHT22;13074;48.298;14.424;2023-01-30T10:24:32;3.90;99.90
22147;DHT22;13074;48.298;14.424;2023-01-30T10:27:03;3.40;99.90
22147;DHT22;13074;48.298;14.424;2023-01-30T10:29:36;3.40;99.90
22147;DHT22;13074;48.298;14.424;2023-01-30T10:32:08;3.10;99.90
22147;DHT22;13074;48.298;14.424;2023-01-30T10:34:39;2.90;99.90
22147;DHT22;13074;48.298;14.424;2023-01-30T10:37:11;2.70;99.90
22147;DHT22;13074;48.298;14.424;2023-01-30T10:39:46;2.80;99.90
22147;DHT22;13074;48.298;14.424;2023-01-30T10:42:18;2.90;99.90
22147;DHT22;13074;48.298;14.424;2023-01-30T10:44:47;2.90;99.90
22147;DHT22;13074;48.298;14.424;2023-01-30T10:47:33;2.90;99.90
22147;DHT22;13074;48.298;14.424;2023-01-30T10:50:13;3.00;99.90
22147;DHT22;13074;48.298;14.424;2023-01-30T10:52:46;3.20;99.90
22147;DHT22;13074;48.298;14.424;2023-01-30T10:55:30;3.30;99.90
22147;DHT22;13074;48.298;14.424;2023-01-30T10:58:04;3.30;99.90
22147;DHT22;13074;48.298;14.424;2023-01-30T11:00:38;3.30;99.90
22147;DHT22;13074;48.298;14.424;2023-01-30T11:03:19;3.30;99.90
22147;DHT22;13074;48.298;14.424;2023-01-30T11:05:49;3.10;99.90
22147;DHT22;13074;48.298;14.424;2023-01-30T11:08:20;3.00;99.90
22147;DHT22;13074;48.298;14.424;2023-01-30T11:10:50;2.90;99.90
22147;DHT22;13074;48.298;14.424;2023-01-30T11:13:18;2.90;99.90
22147;DHT22;13074;48.298;14.424;2023-01-30T11:15:48;3.00;99.90
22147;DHT22;13074;48.298;14.424;2023-01-30T11:18:17;3.10;99.90
22147;DHT22;13074;48.298;14.424;2023-01-30T11:20:55;3.10;99.90
22147;DHT22;13074;48.298;14.424;2023-01-30T11:23:26;3.10;99.90
22147;DHT22;13074;48.298;14.424;2023-01-30T11:26:01;3.30;99.90
22147;DHT22;13074;48.298;14.424;2023-01-30T11:28:34;3.30;99.90
22147;DHT22;13074;48.298;14.424;2023-01-30T11:31:03;3.50;99.90
22147;DHT22;13074;48.298;14.424;2023-01-30T11:33:32;3.70;99.90
22147;DHT22;13074;48.298;14.424;2023-01-30T11:36:00;3.80;99.90
22147;DHT22;13074;48.298;14.424;2023-01-30T11:38:29;3.80;99.90
22147;DHT22;13074;48.298;14.424;2023-01-30T11:41:09;3.90;99.90
22147;DHT22;13074;48.298;14.424;2023-01-30T11:43:39;3.90;99.90
22147;DHT22;13074;48.298;14.424;2023-01-30T11:46:07;3.90;99.90
22147;DHT22;13074;48.298;14.424;2023-01-30T11:48:42;3.90;99.90
22147;DHT22;13074;48.298;14.424;2023-01-30T11:51:11;3.90;99.90
22147;DHT22;13074;48.298;14.424;2023-01-30T11:53:42;3.80;99.90
22147;DHT22;13074;48.298;14.424;2023-01-30T11:56:16;3.80;99.90
22147;DHT22;13074;48.298;14.424;2023-01-30T11:58:54;3.60;99.90
22147;DHT22;13074;48.298;14.424;2023-01-30T12:01:26;3.60;99.90
22147;DHT22;13074;48.298;14.424;2023-01-30T12:03:56;3.70;99.90
22147;DHT22;13074;48.298;14.424;2023-01-30T12:06:28;3.60;99.90
22147;DHT22;13074;48.298;14.424;2023-01-30T12:08:56;3.40;99.90
22147;DHT22;13074;48.298;14.424;2023-01-30T12:11:36;3.20;99.90
22147;DHT22;13074;48.298;14.424;2023-01-30T12:14:35;3.10;99.90
22147;DHT22;13074;48.298;14.424;2023-01-30T12:17:10;3.00;99.90
22147;DHT22;13074;48.298;14.424;2023-01-30T12:19:51;3.10;99.90
22147;DHT22;13074;48.298;14.424;2023-01-30T12:22:27;3.20;99.90
22147;DHT22;13074;48.298;14.424;2023-01-30T12:25:09;3.20;99.90
22147;DHT22;13074;48.298;14.424;2023-01-30T12:27:54;3.30;99.90
22147;DHT22;13074;48.298;14.424;2023-01-30T12:30:30;3.30;99.90
22147;DHT22;13074;48.298;14.424;2023-01-30T12:33:00;3.20;99.90
22147;DHT22;13074;48.298;14.424;2023-01-30T12:35:36;3.10;99.90
22147;DHT22;13074;48.298;14.424;2023-01-30T12:38:17;3.00;99.90
22147;DHT22;13074;48.298;14.424;2023-01-30T12:40:53;2.90;99.90
22147;DHT22;13074;48.298;14.424;2023-01-30T12:43:45;2.90;99.90
22147;DHT22;13074;48.298;14.424;2023-01-30T12:46:29;3.00;99.90
22147;DHT22;13074;48.298;14.424;2023-01-30T12:49:21;3.10;99.90
22147;DHT22;13074;48.298;14.424;2023-01-30T12:52:07;3.30;99.90
22147;DHT22;13074;48.298;14.424;2023-01-30T12:54:46;3.20;99.90
22147;DHT22;13074;48.298;14.424;2023-01-30T12:57:25;3.20;99.90
22147;DHT22;13074;48.298;14.424;2023-01-30T13:00:03;3.40;99.90
22147;DHT22;13074;48.298;14.424;2023-01-30T13:02:42;3.40;99.90
22147;DHT22;13074;48.298;14.424;2023-01-30T13:05:19;3.40;99.90
22147;DHT22;13074;48.298;14.424;2023-01-30T13:08:02;3.20;99.90
22147;DHT22;13074;48.298;14.424;2023-01-30T13:10:37;3.10;99.90
22147;DHT22;13074;48.298;14.424;2023-01-30T13:13:13;3.00;99.90
22147;DHT22;13074;48.298;14.424;2023-01-30T13:15:50;3.20;99.90
22147;DHT22;13074;48.298;14.424;2023-01-30T13:18:24;3.30;99.90
22147;DHT22;13074;48.298;14.424;2023-01-30T13:20:57;3.30;99.90
22147;DHT22;13074;48.298;14.424;2023-01-30T13:23:36;3.30;99.90
22147;DHT22;13074;48.298;14.424;2023-01-30T13:26:09;3.50;99.90
22147;DHT22;13074;48.298;14.424;2023-01-30T13:28:39;3.60;99.90
22147;DHT22;13074;48.298;14.424;2023-01-30T13:31:13;3.60;99.90
22147;DHT22;13074;48.298;14.424;2023-01-30T13:33:44;3.60;99.90
22147;DHT22;13074;48.298;14.424;2023-01-30T13:36:15;3.50;99.90
22147;DHT22;13074;48.298;14.424;2023-01-30T13:38:52;3.60;99.90
22147;DHT22;13074;48.298;14.424;2023-01-30T13:41:23;3.60;99.90
22147;DHT22;13074;48.298;14.424;2023-01-30T13:43:52;3.80;99.90
22147;DHT22;13074;48.298;14.424;2023-01-30T13:46:25;3.90;99.90
22147;DHT22;13074;48.298;14.424;2023-01-30T13:49:04;4.00;99.90
22147;DHT22;13074;48.298;14.424;2023-01-30T13:51:53;4.00;99.90
22147;DHT22;13074;48.298;14.424;2023-01-30T13:54:41;3.90;99.90
22147;DHT22;13074;48.298;14.424;2023-01-30T13:57:19;3.80;99.90
22147;DHT22;13074;48.298;14.424;2023-01-30T14:00:17;3.70;99.90
22147;DHT22;13074;48.298;14.424;2023-01-30T14:03:27;3.40;99.90
22147;DHT22;13074;48.298;14.424;2023-01-30T14:06:13;3.30;99.90
22147;DHT22;13074;48.298;14.424;2023-01-30T14:08:49;3.30;99.90
22147;DHT22;13074;48.298;14.424;2023-01-30T14:11:28;3.20;99.90
22147;DHT22;13074;48.298;14.424;2023-01-30T14:13:59;3.10;99.90
22147;DHT22;13074;48.298;14.424;2023-01-30T14:16:40;3.00;99.90
22147;DHT22;13074;48.298;14.424;2023-01-30T14:19:34;3.00;99.90
22147;DHT22;13074;48.298;14.424;2023-01-30T14:22:15;2.70;99.90
22147;DHT22;13074;48.298;14.424;2023-01-30T14:24:43;2.80;99.90
22147;DHT22;13074;48.298;14.424;2023-01-30T14:27:25;2.70;99.90
22147;DHT22;13074;48.298;14.424;2023-01-30T14:29:56;2.80;99.90
22147;DHT22;13074;48.298;14.424;2023-01-30T14:32:52;2.80;99.90
22147;DHT22;13074;48.298;14.424;2023-01-30T14:35:23;2.80;99.90
22147;DHT22;13074;48.298;14.424;2023-01-30T14:38:08;2.90;99.90
22147;DHT22;13074;48.298;14.424;2023-01-30T14:40:38;2.80;99.90
22147;DHT22;13074;48.298;14.424;2023-01-30T14:43:34;2.70;99.90
22147;DHT22;13074;48.298;14.424;2023-01-30T14:46:03;2.70;99.90
22147;DHT22;13074;48.298;14.424;2023-01-30T14:48:34;2.60;99.90
22147;DHT22;13074;48.298;14.424;2023-01-30T14:51:27;2.50;99.90
22147;DHT22;13074;48.298;14.424;2023-01-30T14:53:59;2.40;99.90
22147;DHT22;13074;48.298;14.424;2023-01-30T14:56:48;2.50;99.90
22147;DHT22;13074;48.298;14.424;2023-01-30T14:59:21;2.30;99.90
22147;DHT22;13074;48.298;14.424;2023-01-30T15:01:59;2.40;99.90
22147;DHT22;13074;48.298;14.424;2023-01-30T15:04:30;2.50;99.90
22147;DHT22;13074;48.298;14.424;2023-01-30T15:07:00;2.50;99.90
22147;DHT22;13074;48.298;14.424;2023-01-30T15:09:31;2.60;99.90
22147;DHT22;13074;48.298;14.424;2023-01-30T15:12:16;2.80;99.90
22147;DHT22;13074;48.298;14.424;2023-01-30T15:14:57;2.70;99.90
22147;DHT22;13074;48.298;14.424;2023-01-30T15:17:34;2.70;99.90
22147;DHT22;13074;48.298;14.424;2023-01-30T15:20:15;2.80;99.90
22147;DHT22;13074;48.298;14.424;2023-01-30T15:23:00;2.80;99.90
22147;DHT22;13074;48.298;14.424;2023-01-30T15:25:47;2.60;99.90
22147;DHT22;13074;48.298;14.424;2023-01-30T15:28:30;2.70;99.90
22147;DHT22;13074;48.298;14.424;2023-01-30T15:31:04;2.80;99.90
22147;DHT22;13074;48.298;14.424;2023-01-30T15:33:43;2.70;99.90
22147;DHT22;13074;48.298;14.424;2023-01-30T15:36:19;2.70;99.90
22147;DHT22;13074;48.298;14.424;2023-01-30T15:38:55;2.40;99.90
22147;DHT22;13074;48.298;14.424;2023-01-30T15:41:22;2.40;99.90
22147;DHT22;13074;48.298;14.424;2023-01-30T15:46:48;2.30;99.90
22147;DHT22;13074;48.298;14.424;2023-01-30T15:52:21;2.00;99.90
22147;DHT22;13074;48.298;14.424;2023-01-30T15:54:53;2.10;99.90
22147;DHT22;13074;48.298;14.424;2023-01-30T15:57:23;2.00;99.90
22147;DHT22;13074;48.298;14.424;2023-01-30T15:59:53;2.10;99.90
22147;DHT22;13074;48.298;14.424;2023-01-30T16:02:27;2.00;99.90
22147;DHT22;13074;48.298;14.424;2023-01-30T16:05:12;1.90;99.90
22147;DHT22;13074;48.298;14.424;2023-01-30T16:07:40;1.90;99.90
22147;DHT22;13074;48.298;14.424;2023-01-30T16:10:13;2.00;99.90
22147;DHT22;13074;48.298;14.424;2023-01-30T16:12:41;2.30;99.90
22147;DHT22;13074;48.298;14.424;2023-01-30T16:15:15;2.30;99.90